sensor_id;sensor_type;location;lat;lon;timestamp;temperature;humidity
25554;DHT22;13446;50.926;5.332;2023-02-15T00:00:53;6.50;99.90
25554;DHT22;13446;50.926;5.332;2023-02-15T00:03:20;6.40;99.90
25554;DHT22;13446;50.926;5.332;2023-02-15T00:05:46;6.40;99.90
25554;DHT22;13446;50.926;5.332;2023-02-15T00:08:12;6.60;99.90
25554;DHT22;13446;50.926;5.332;2023-02-15T00:10:38;6.70;99.90
25554;DHT22;13446;50.926;5.332;2023-02-15T00:13:04;6.70;99.90
25554;DHT22;13446;50.926;5.332;2023-02-15T00:15:29;6.50;99.90
25554;DHT22;13446;50.926;5.332;2023-02-15T00:17:56;6.50;99.90
25554;DHT22;13446;50.926;5.332;2023-02-15T00:20:22;6.50;99.90
25554;DHT22;13446;50.926;5.332;2023-02-15T00:22:47;6.60;99.90
25554;DHT22;13446;50.926;5.332;2023-02-15T00:25:13;6.50;99.90
25554;DHT22;13446;50.926;5.332;2023-02-15T00:27:39;6.60;99.90
25554;DHT22;13446;50.926;5.332;2023-02-15T00:30:05;6.50;99.90
25554;DHT22;13446;50.926;5.332;2023-02-15T00:32:31;6.30;99.90
25554;DHT22;13446;50.926;5.332;2023-02-15T00:34:57;6.30;99.90
25554;DHT22;13446;50.926;5.332;2023-02-15T00:37:23;6.30;99.90
25554;DHT22;13446;50.926;5.332;2023-02-15T00:39:48;6.30;99.90
25554;DHT22;13446;50.926;5.332;2023-02-15T00:42:14;6.30;99.90
25554;DHT22;13446;50.926;5.332;2023-02-15T00:44:39;6.40;99.90
25554;DHT22;13446;50.926;5.332;2023-02-15T00:47:05;6.30;99.90
25554;DHT22;13446;50.926;5.332;2023-02-15T00:49:30;6.30;99.90
25554;DHT22;13446;50.926;5.332;2023-02-15T00:51:56;6.20;99.90
25554;DHT22;13446;50.926;5.332;2023-02-15T00:54:21;6.10;99.90
25554;DHT22;13446;50.926;5.332;2023-02-15T00:56:47;6.20;99.90
25554;DHT22;13446;50.926;5.332;2023-02-15T00:59:12;6.10;99.90
25554;DHT22;13446;50.926;5.332;2023-02-15T01:01:38;6.00;99.90
25554;DHT22;13446;50.926;5.332;2023-02-15T01:04:04;5.90;99.90
25554;DHT22;13446;50.926;5.332;2023-02-15T01:06:29;5.90;99.90
25554;DHT22;13446;50.926;5.332;2023-02-15T01:08:55;6.10;99.90
25554;DHT22;13446;50.926;5.332;2023-02-15T01:11:21;6.10;99.90
25554;DHT22;13446;50.926;5.332;2023-02-15T01:13:48;5.90;99.90
25554;DHT22;13446;50.926;5.332;2023-02-15T01:16:15;5.70;99.90
25554;DHT22;13446;50.926;5.332;2023-02-15T01:18:41;5.70;99.90
25554;DHT22;13446;50.926;5.332;2023-02-15T01:21:10;5.60;99.90
25554;DHT22;13446;50.926;5.332;2023-02-15T01:23:36;5.60;99.90
25554;DHT22;13446;50.926;5.332;2023-02-15T01:26:02;5.70;99.90
25554;DHT22;13446;50.926;5.332;2023-02-15T01:28:28;5.80;99.90
25554;DHT22;13446;50.926;5.332;2023-02-15T01:30:55;5.80;99.90
25554;DHT22;13446;50.926;5.332;2023-02-15T01:33:20;5.80;99.90
25554;DHT22;13446;50.926;5.332;2023-02-15T01:35:46;5.80;99.90
25554;DHT22;13446;50.926;5.332;2023-02-15T01:38:12;5.80;99.90
25554;DHT22;13446;50.926;5.332;2023-02-15T01:40:38;5.80;99.90
25554;DHT22;13446;50.926;5.332;2023-02-15T01:43:07;5.70;99.90
25554;DHT22;13446;50.926;5.332;2023-02-15T01:45:34;5.70;99.90
25554;DHT22;13446;50.926;5.332;2023-02-15T01:50:47;5.40;99.90
25554;DHT22;13446;50.926;5.332;2023-02-15T01:55:45;5.30;99.90
25554;DHT22;13446;50.926;5.332;2023-02-15T01:58:12;5.40;99.90
25554;DHT22;13446;50.926;5.332;2023-02-15T02:00:38;5.40;99.90
25554;DHT22;13446;50.926;5.332;2023-02-15T02:03:03;5.50;99.90
25554;DHT22;13446;50.926;5.332;2023-02-15T02:05:29;5.40;99.90
25554;DHT22;13446;50.926;5.332;2023-02-15T02:07:56;5.30;99.90
25554;DHT22;13446;50.926;5.332;2023-02-15T02:10:24;5.20;99.90
25554;DHT22;13446;50.926;5.332;2023-02-15T02:12:52;5.10;99.90
25554;DHT22;13446;50.926;5.332;2023-02-15T02:15:20;5.30;99.90
25554;DHT22;13446;50.926;5.332;2023-02-15T02:20:30;5.10;99.90
25554;DHT22;13446;50.926;5.332;2023-02-15T02:23:13;5.20;99.90
25554;DHT22;13446;50.926;5.332;2023-02-15T02:36:19;5.10;99.90
25554;DHT22;13446;50.926;5.332;2023-02-15T02:38:58;5.10;99.90
25554;DHT22;13446;50.926;5.332;2023-02-15T02:41:35;5.10;99.90
25554;DHT22;13446;50.926;5.332;2023-02-15T02:46:36;5.20;99.90
25554;DHT22;13446;50.926;5.332;2023-02-15T02:49:02;5.30;99.90
25554;DHT22;13446;50.926;5.332;2023-02-15T02:51:27;5.20;99.90
25554;DHT22;13446;50.926;5.332;2023-02-15T02:53:54;5.10;99.90
25554;DHT22;13446;50.926;5.332;2023-02-15T02:59:10;4.70;99.90
25554;DHT22;13446;50.926;5.332;2023-02-15T03:01:34;4.70;99.90
25554;DHT22;13446;50.926;5.332;2023-02-15T03:04:02;4.50;99.90
25554;DHT22;13446;50.926;5.332;2023-02-15T03:06:35;4.70;99.90
25554;DHT22;13446;50.926;5.332;2023-02-15T03:09:10;4.80;99.90
25554;DHT22;13446;50.926;5.332;2023-02-15T03:11:40;4.80;99.90
25554;DHT22;13446;50.926;5.332;2023-02-15T03:14:06;4.90;99.90
25554;DHT22;13446;50.926;5.332;2023-02-15T03:16:32;4.80;99.90
25554;DHT22;13446;50.926;5.332;2023-02-15T03:21:25;4.80;99.90
25554;DHT22;13446;50.926;5.332;2023-02-15T03:23:53;4.80;99.90
25554;DHT22;13446;50.926;5.332;2023-02-15T03:26:20;4.80;99.90
25554;DHT22;13446;50.926;5.332;2023-02-15T03:28:46;4.80;99.90
25554;DHT22;13446;50.926;5.332;2023-02-15T03:31:14;4.80;99.90
25554;DHT22;13446;50.926;5.332;2023-02-15T03:33:42;4.70;99.90
25554;DHT22;13446;50.926;5.332;2023-02-15T03:38:43;4.50;99.90
25554;DHT22;13446;50.926;5.332;2023-02-15T03:41:11;4.70;99.90
25554;DHT22;13446;50.926;5.332;2023-02-15T03:46:08;4.70;99.90
25554;DHT22;13446;50.926;5.332;2023-02-15T03:48:39;4.70;99.90
25554;DHT22;13446;50.926;5.332;2023-02-15T03:51:07;4.70;99.90
25554;DHT22;13446;50.926;5.332;2023-02-15T03:53:52;4.50;99.90
25554;DHT22;13446;50.926;5.332;2023-02-15T03:56:19;4.40;99.90
25554;DHT22;13446;50.926;5.332;2023-02-15T03:58:44;4.40;99.90
25554;DHT22;13446;50.926;5.332;2023-02-15T04:01:40;4.40;99.90
25554;DHT22;13446;50.926;5.332;2023-02-15T04:04:30;4.40;99.90
25554;DHT22;13446;50.926;5.332;2023-02-15T04:06:57;4.40;99.90
25554;DHT22;13446;50.926;5.332;2023-02-15T04:09:22;4.40;99.90
25554;DHT22;13446;50.926;5.332;2023-02-15T04:12:06;4.40;99.90
25554;DHT22;13446;50.926;5.332;2023-02-15T04:14:32;4.30;99.90
25554;DHT22;13446;50.926;5.332;2023-02-15T04:17:17;4.30;99.90
25554;DHT22;13446;50.926;5.332;2023-02-15T04:19:42;4.30;99.90
25554;DHT22;13446;50.926;5.332;2023-02-15T04:22:26;4.40;99.90
25554;DHT22;13446;50.926;5.332;2023-02-15T04:25:10;4.50;99.90
25554;DHT22;13446;50.926;5.332;2023-02-15T04:27:42;4.40;99.90
25554;DHT22;13446;50.926;5.332;2023-02-15T04:30:07;4.40;99.90
25554;DHT22;13446;50.926;5.332;2023-02-15T04:32:33;4.40;99.90
25554;DHT22;13446;50.926;5.332;2023-02-15T04:34:59;4.30;99.90
25554;DHT22;13446;50.926;5.332;2023-02-15T04:37:25;4.30;99.90
25554;DHT22;13446;50.926;5.332;2023-02-15T04:39:50;4.30;99.90
25554;DHT22;13446;50.926;5.332;2023-02-15T04:42:16;4.30;99.90
25554;DHT22;13446;50.926;5.332;2023-02-15T04:44:42;4.30;99.90
25554;DHT22;13446;50.926;5.332;2023-02-15T04:47:07;4.40;99.90
25554;DHT22;13446;50.926;5.332;2023-02-15T04:49:33;4.30;99.90
25554;DHT22;13446;50.926;5.332;2023-02-15T04:51:59;4.30;99.90
25554;DHT22;13446;50.926;5.332;2023-02-15T04:54:24;4.30;99.90
25554;DHT22;13446;50.926;5.332;2023-02-15T04:56:50;4.30;99.90
25554;DHT22;13446;50.926;5.332;2023-02-15T04:59:15;4.30;99.90
25554;DHT22;13446;50.926;5.332;2023-02-15T05:01:41;4.30;99.90
25554;DHT22;13446;50.926;5.332;2023-02-15T05:04:06;4.20;99.90
25554;DHT22;13446;50.926;5.332;2023-02-15T05:06:32;4.10;99.90
25554;DHT22;13446;50.926;5.332;2023-02-15T05:08:57;4.10;99.90
25554;DHT22;13446;50.926;5.332;2023-02-15T05:11:26;4.10;99.90
25554;DHT22;13446;50.926;5.332;2023-02-15T05:13:52;4.20;99.90
25554;DHT22;13446;50.926;5.332;2023-02-15T05:16:17;4.20;99.90
25554;DHT22;13446;50.926;5.332;2023-02-15T05:18:44;4.10;99.90
25554;DHT22;13446;50.926;5.332;2023-02-15T05:21:10;4.20;99.90
25554;DHT22;13446;50.926;5.332;2023-02-15T05:23:35;4.20;99.90
25554;DHT22;13446;50.926;5.332;2023-02-15T05:26:01;4.10;99.90
25554;DHT22;13446;50.926;5.332;2023-02-15T05:28:45;4.00;99.90
25554;DHT22;13446;50.926;5.332;2023-02-15T05:31:12;4.00;99.90
25554;DHT22;13446;50.926;5.332;2023-02-15T05:33:39;3.80;99.90
25554;DHT22;13446;50.926;5.332;2023-02-15T05:36:06;3.80;99.90
25554;DHT22;13446;50.926;5.332;2023-02-15T05:38:32;3.90;99.90
25554;DHT22;13446;50.926;5.332;2023-02-15T05:40:58;3.90;99.90
25554;DHT22;13446;50.926;5.332;2023-02-15T05:43:24;3.80;99.90
25554;DHT22;13446;50.926;5.332;2023-02-15T05:45:50;3.70;99.90
25554;DHT22;13446;50.926;5.332;2023-02-15T05:48:17;3.70;99.90
25554;DHT22;13446;50.926;5.332;2023-02-15T05:50:44;3.80;99.90
25554;DHT22;13446;50.926;5.332;2023-02-15T05:53:10;3.80;99.90
25554;DHT22;13446;50.926;5.332;2023-02-15T05:55:38;3.70;99.90
25554;DHT22;13446;50.926;5.332;2023-02-15T05:58:05;3.80;99.90
25554;DHT22;13446;50.926;5.332;2023-02-15T06:00:30;3.80;99.90
25554;DHT22;13446;50.926;5.332;2023-02-15T06:02:56;3.80;99.90
25554;DHT22;13446;50.926;5.332;2023-02-15T06:05:21;3.90;99.90
25554;DHT22;13446;50.926;5.332;2023-02-15T06:07:47;3.80;99.90
25554;DHT22;13446;50.926;5.332;2023-02-15T06:10:13;3.70;99.90
25554;DHT22;13446;50.926;5.332;2023-02-15T06:12:39;3.70;99.90
25554;DHT22;13446;50.926;5.332;2023-02-15T06:15:04;3.60;99.90
25554;DHT22;13446;50.926;5.332;2023-02-15T06:17:30;3.70;99.90
25554;DHT22;13446;50.926;5.332;2023-02-15T06:19:56;3.70;99.90
25554;DHT22;13446;50.926;5.332;2023-02-15T06:22:21;3.80;99.90
25554;DHT22;13446;50.926;5.332;2023-02-15T06:24:47;3.80;99.90
25554;DHT22;13446;50.926;5.332;2023-02-15T06:27:13;3.70;99.90
25554;DHT22;13446;50.926;5.332;2023-02-15T06:29:39;3.70;99.90
25554;DHT22;13446;50.926;5.332;2023-02-15T06:32:08;3.60;99.90
25554;DHT22;13446;50.926;5.332;2023-02-15T06:34:34;3.70;99.90
25554;DHT22;13446;50.926;5.332;2023-02-15T06:36:59;3.70;99.90
25554;DHT22;13446;50.926;5.332;2023-02-15T06:39:25;3.70;99.90
25554;DHT22;13446;50.926;5.332;2023-02-15T06:41:50;3.60;99.90
25554;DHT22;13446;50.926;5.332;2023-02-15T06:44:19;3.70;99.90
25554;DHT22;13446;50.926;5.332;2023-02-15T06:46:44;3.60;99.90
25554;DHT22;13446;50.926;5.332;2023-02-15T06:49:10;3.60;99.90
25554;DHT22;13446;50.926;5.332;2023-02-15T06:51:35;3.60;99.90
25554;DHT22;13446;50.926;5.332;2023-02-15T06:54:01;3.50;99.90
25554;DHT22;13446;50.926;5.332;2023-02-15T06:56:26;3.60;99.90
25554;DHT22;13446;50.926;5.332;2023-02-15T06:58:52;3.90;99.90
25554;DHT22;13446;50.926;5.332;2023-02-15T07:01:18;3.90;99.90
25554;DHT22;13446;50.926;5.332;2023-02-15T07:03:44;4.00;99.90
25554;DHT22;13446;50.926;5.332;2023-02-15T07:06:09;4.10;99.90
25554;DHT22;13446;50.926;5.332;2023-02-15T07:08:36;4.00;99.90
25554;DHT22;13446;50.926;5.332;2023-02-15T07:11:01;4.00;99.90
25554;DHT22;13446;50.926;5.332;2023-02-15T07:13:46;3.90;99.90
25554;DHT22;13446;50.926;5.332;2023-02-15T07:16:12;4.00;99.90
25554;DHT22;13446;50.926;5.332;2023-02-15T07:18:38;4.10;99.90
25554;DHT22;13446;50.926;5.332;2023-02-15T07:21:04;4.20;99.90
25554;DHT22;13446;50.926;5.332;2023-02-15T07:23:29;4.30;99.90
25554;DHT22;13446;50.926;5.332;2023-02-15T07:25:59;4.30;99.90
25554;DHT22;13446;50.926;5.332;2023-02-15T07:28:25;4.30;99.90
25554;DHT22;13446;50.926;5.332;2023-02-15T07:30:51;4.40;99.90
25554;DHT22;13446;50.926;5.332;2023-02-15T07:33:16;4.70;99.90
25554;DHT22;13446;50.926;5.332;2023-02-15T07:35:49;5.00;99.90
25554;DHT22;13446;50.926;5.332;2023-02-15T07:38:14;5.10;99.90
25554;DHT22;13446;50.926;5.332;2023-02-15T07:40:40;5.20;99.90
25554;DHT22;13446;50.926;5.332;2023-02-15T07:43:05;5.30;99.90
25554;DHT22;13446;50.926;5.332;2023-02-15T07:45:31;5.30;99.90
25554;DHT22;13446;50.926;5.332;2023-02-15T07:47:56;5.30;99.90
25554;DHT22;13446;50.926;5.332;2023-02-15T07:50:22;5.50;99.90
25554;DHT22;13446;50.926;5.332;2023-02-15T07:52:48;5.60;99.90
25554;DHT22;13446;50.926;5.332;2023-02-15T07:55:13;5.80;99.90
25554;DHT22;13446;50.926;5.332;2023-02-15T07:57:42;5.90;99.90
25554;DHT22;13446;50.926;5.332;2023-02-15T08:00:09;6.10;99.90
25554;DHT22;13446;50.926;5.332;2023-02-15T08:02:35;7.00;99.90
25554;DHT22;13446;50.926;5.332;2023-02-15T08:05:02;8.00;99.90
25554;DHT22;13446;50.926;5.332;2023-02-15T08:07:28;8.70;99.90
25554;DHT22;13446;50.926;5.332;2023-02-15T08:09:53;9.20;99.90
25554;DHT22;13446;50.926;5.332;2023-02-15T08:12:19;9.80;99.90
25554;DHT22;13446;50.926;5.332;2023-02-15T08:14:44;10.40;99.90
25554;DHT22;13446;50.926;5.332;2023-02-15T08:17:10;11.10;99.90
25554;DHT22;13446;50.926;5.332;2023-02-15T08:19:36;11.80;99.90
25554;DHT22;13446;50.926;5.332;2023-02-15T08:22:03;12.90;99.90
25554;DHT22;13446;50.926;5.332;2023-02-15T08:24:30;13.50;99.90
25554;DHT22;13446;50.926;5.332;2023-02-15T08:26:56;13.70;99.90
25554;DHT22;13446;50.926;5.332;2023-02-15T08:29:27;13.80;99.90
25554;DHT22;13446;50.926;5.332;2023-02-15T08:32:00;13.70;99.90
25554;DHT22;13446;50.926;5.332;2023-02-15T08:34:30;14.10;99.40
25554;DHT22;13446;50.926;5.332;2023-02-15T08:36:56;14.60;97.90
25554;DHT22;13446;50.926;5.332;2023-02-15T08:39:21;15.10;96.80
25554;DHT22;13446;50.926;5.332;2023-02-15T08:41:50;15.30;94.30
25554;DHT22;13446;50.926;5.332;2023-02-15T08:44:16;15.50;95.30
25554;DHT22;13446;50.926;5.332;2023-02-15T08:46:43;16.40;93.60
25554;DHT22;13446;50.926;5.332;2023-02-15T08:49:09;16.80;91.20
25554;DHT22;13446;50.926;5.332;2023-02-15T08:51:36;17.30;88.90
25554;DHT22;13446;50.926;5.332;2023-02-15T08:54:04;17.50;85.70
25554;DHT22;13446;50.926;5.332;2023-02-15T08:56:35;17.30;84.90
25554;DHT22;13446;50.926;5.332;2023-02-15T08:59:00;17.40;84.10
25554;DHT22;13446;50.926;5.332;2023-02-15T09:01:27;17.80;83.30
25554;DHT22;13446;50.926;5.332;2023-02-15T09:03:56;17.80;82.00
25554;DHT22;13446;50.926;5.332;2023-02-15T09:06:22;17.80;79.30
25554;DHT22;13446;50.926;5.332;2023-02-15T09:08:48;18.50;76.10
25554;DHT22;13446;50.926;5.332;2023-02-15T09:11:15;19.60;74.70
25554;DHT22;13446;50.926;5.332;2023-02-15T09:13:48;19.50;68.40
25554;DHT22;13446;50.926;5.332;2023-02-15T09:16:14;19.40;66.60
25554;DHT22;13446;50.926;5.332;2023-02-15T09:18:42;19.20;68.30
25554;DHT22;13446;50.926;5.332;2023-02-15T09:21:08;19.70;67.10
25554;DHT22;13446;50.926;5.332;2023-02-15T09:23:34;20.50;64.60
25554;DHT22;13446;50.926;5.332;2023-02-15T09:26:07;21.40;59.70
25554;DHT22;13446;50.926;5.332;2023-02-15T09:28:33;22.00;57.60
25554;DHT22;13446;50.926;5.332;2023-02-15T09:31:06;22.60;55.70
25554;DHT22;13446;50.926;5.332;2023-02-15T09:33:35;23.00;54.00
25554;DHT22;13446;50.926;5.332;2023-02-15T09:36:02;24.00;51.40
25554;DHT22;13446;50.926;5.332;2023-02-15T09:38:28;24.80;48.60
25554;DHT22;13446;50.926;5.332;2023-02-15T09:40:58;25.20;43.50
25554;DHT22;13446;50.926;5.332;2023-02-15T09:43:28;25.60;42.60
25554;DHT22;13446;50.926;5.332;2023-02-15T09:46:06;25.80;41.80
25554;DHT22;13446;50.926;5.332;2023-02-15T09:48:41;25.60;40.70
25554;DHT22;13446;50.926;5.332;2023-02-15T09:51:20;25.40;39.90
25554;DHT22;13446;50.926;5.332;2023-02-15T09:53:57;25.60;40.30
25554;DHT22;13446;50.926;5.332;2023-02-15T10:02:08;25.70;38.50
25554;DHT22;13446;50.926;5.332;2023-02-15T10:07:52;25.00;38.50
25554;DHT22;13446;50.926;5.332;2023-02-15T10:26:04;25.80;37.80
25554;DHT22;13446;50.926;5.332;2023-02-15T10:28:36;25.30;37.10
25554;DHT22;13446;50.926;5.332;2023-02-15T10:33:42;25.30;37.40
25554;DHT22;13446;50.926;5.332;2023-02-15T10:44:03;24.70;39.10
25554;DHT22;13446;50.926;5.332;2023-02-15T10:54:35;26.50;36.40
25554;DHT22;13446;50.926;5.332;2023-02-15T10:59:58;27.20;36.40
25554;DHT22;13446;50.926;5.332;2023-02-15T11:05:15;27.50;35.30
25554;DHT22;13446;50.926;5.332;2023-02-15T11:07:46;27.50;35.60
25554;DHT22;13446;50.926;5.332;2023-02-15T11:12:38;28.20;34.80
25554;DHT22;13446;50.926;5.332;2023-02-15T11:17:55;29.10;33.50
25554;DHT22;13446;50.926;5.332;2023-02-15T11:20:41;29.30;33.30
25554;DHT22;13446;50.926;5.332;2023-02-15T11:23:12;29.50;33.80
25554;DHT22;13446;50.926;5.332;2023-02-15T11:25:43;29.10;33.10
25554;DHT22;13446;50.926;5.332;2023-02-15T11:30:55;27.90;33.30
25554;DHT22;13446;50.926;5.332;2023-02-15T11:33:22;27.90;33.50
25554;DHT22;13446;50.926;5.332;2023-02-15T11:35:52;27.80;33.70
25554;DHT22;13446;50.926;5.332;2023-02-15T11:38:22;28.40;33.40
25554;DHT22;13446;50.926;5.332;2023-02-15T11:40:50;28.20;32.70
25554;DHT22;13446;50.926;5.332;2023-02-15T11:43:28;27.90;32.90
25554;DHT22;13446;50.926;5.332;2023-02-15T11:45:55;27.80;32.70
25554;DHT22;13446;50.926;5.332;2023-02-15T11:48:20;28.30;33.60
25554;DHT22;13446;50.926;5.332;2023-02-15T11:50:46;28.20;32.90
25554;DHT22;13446;50.926;5.332;2023-02-15T11:53:13;28.40;32.50
25554;DHT22;13446;50.926;5.332;2023-02-15T11:55:39;28.10;32.70
25554;DHT22;13446;50.926;5.332;2023-02-15T12:00:33;27.60;33.00
25554;DHT22;13446;50.926;5.332;2023-02-15T12:03:46;27.20;33.60
25554;DHT22;13446;50.926;5.332;2023-02-15T12:05:56;27.00;34.00
25554;DHT22;13446;50.926;5.332;2023-02-15T12:08:23;26.70;35.00
25554;DHT22;13446;50.926;5.332;2023-02-15T12:13:16;26.40;35.10
25554;DHT22;13446;50.926;5.332;2023-02-15T12:15:44;26.60;35.00
25554;DHT22;13446;50.926;5.332;2023-02-15T12:20:46;26.60;35.90
25554;DHT22;13446;50.926;5.332;2023-02-15T12:23:14;27.10;34.90
25554;DHT22;13446;50.926;5.332;2023-02-15T12:28:22;27.20;33.80
25554;DHT22;13446;50.926;5.332;2023-02-15T12:30:48;27.60;34.50
25554;DHT22;13446;50.926;5.332;2023-02-15T12:35:57;26.60;33.80
25554;DHT22;13446;50.926;5.332;2023-02-15T12:38:25;26.30;34.50
25554;DHT22;13446;50.926;5.332;2023-02-15T12:41:02;26.10;35.10
25554;DHT22;13446;50.926;5.332;2023-02-15T12:43:35;25.30;35.30
25554;DHT22;13446;50.926;5.332;2023-02-15T12:46:20;25.70;36.60
25554;DHT22;13446;50.926;5.332;2023-02-15T12:48:46;26.30;35.60
25554;DHT22;13446;50.926;5.332;2023-02-15T12:51:13;25.90;35.70
25554;DHT22;13446;50.926;5.332;2023-02-15T12:53:39;26.00;35.70
25554;DHT22;13446;50.926;5.332;2023-02-15T12:56:06;25.60;35.70
25554;DHT22;13446;50.926;5.332;2023-02-15T12:58:33;24.50;36.80
25554;DHT22;13446;50.926;5.332;2023-02-15T13:04:03;23.00;39.90
25554;DHT22;13446;50.926;5.332;2023-02-15T13:06:31;22.90;41.00
25554;DHT22;13446;50.926;5.332;2023-02-15T13:08:58;22.70;40.40
25554;DHT22;13446;50.926;5.332;2023-02-15T13:11:30;22.80;40.20
25554;DHT22;13446;50.926;5.332;2023-02-15T13:14:00;23.00;39.70
25554;DHT22;13446;50.926;5.332;2023-02-15T13:16:36;23.30;40.70
25554;DHT22;13446;50.926;5.332;2023-02-15T13:19:06;23.10;40.40
25554;DHT22;13446;50.926;5.332;2023-02-15T13:21:37;22.20;41.00
25554;DHT22;13446;50.926;5.332;2023-02-15T13:24:15;21.80;42.00
25554;DHT22;13446;50.926;5.332;2023-02-15T13:26:42;21.20;43.60
25554;DHT22;13446;50.926;5.332;2023-02-15T13:29:21;21.00;44.20
25554;DHT22;13446;50.926;5.332;2023-02-15T13:31:48;21.10;45.00
25554;DHT22;13446;50.926;5.332;2023-02-15T13:34:19;21.00;45.10
25554;DHT22;13446;50.926;5.332;2023-02-15T13:36:49;21.20;45.60
25554;DHT22;13446;50.926;5.332;2023-02-15T13:41:51;21.20;45.30
25554;DHT22;13446;50.926;5.332;2023-02-15T13:45:08;21.10;46.00
25554;DHT22;13446;50.926;5.332;2023-02-15T13:54:58;21.60;45.50
25554;DHT22;13446;50.926;5.332;2023-02-15T13:57:31;21.40;46.00
25554;DHT22;13446;50.926;5.332;2023-02-15T14:00:04;21.10;46.50
25554;DHT22;13446;50.926;5.332;2023-02-15T14:05:14;20.60;47.10
25554;DHT22;13446;50.926;5.332;2023-02-15T14:07:56;20.70;47.70
25554;DHT22;13446;50.926;5.332;2023-02-15T14:18:38;20.40;49.30
25554;DHT22;13446;50.926;5.332;2023-02-15T14:23:42;20.30;50.20
25554;DHT22;13446;50.926;5.332;2023-02-15T14:31:44;20.10;51.00
25554;DHT22;13446;50.926;5.332;2023-02-15T14:34:22;20.30;51.30
25554;DHT22;13446;50.926;5.332;2023-02-15T14:36:50;20.30;51.30
25554;DHT22;13446;50.926;5.332;2023-02-15T14:42:32;20.20;52.20
25554;DHT22;13446;50.926;5.332;2023-02-15T14:45:28;19.80;52.90
25554;DHT22;13446;50.926;5.332;2023-02-15T14:47:53;19.20;54.60
25554;DHT22;13446;50.926;5.332;2023-02-15T14:50:41;18.70;56.90
25554;DHT22;13446;50.926;5.332;2023-02-15T15:01:27;17.50;66.10
25554;DHT22;13446;50.926;5.332;2023-02-15T15:03:55;17.30;68.50
25554;DHT22;13446;50.926;5.332;2023-02-15T15:06:27;17.10;70.90
25554;DHT22;13446;50.926;5.332;2023-02-15T15:11:43;17.10;72.70
25554;DHT22;13446;50.926;5.332;2023-02-15T15:14:11;17.20;74.20
25554;DHT22;13446;50.926;5.332;2023-02-15T15:16:55;17.00;74.80
25554;DHT22;13446;50.926;5.332;2023-02-15T15:22:06;17.10;77.00
25554;DHT22;13446;50.926;5.332;2023-02-15T15:29:51;16.70;81.00
25554;DHT22;13446;50.926;5.332;2023-02-15T15:32:19;16.40;82.40
25554;DHT22;13446;50.926;5.332;2023-02-15T15:34:51;16.40;83.80
25554;DHT22;13446;50.926;5.332;2023-02-15T15:37:45;16.30;85.70
25554;DHT22;13446;50.926;5.332;2023-02-15T15:43:10;16.30;87.90
25554;DHT22;13446;50.926;5.332;2023-02-15T15:45:51;16.30;88.80
25554;DHT22;13446;50.926;5.332;2023-02-15T15:48:33;16.20;89.10
25554;DHT22;13446;50.926;5.332;2023-02-15T15:51:01;16.10;90.00
25554;DHT22;13446;50.926;5.332;2023-02-15T15:53:28;16.20;90.30
25554;DHT22;13446;50.926;5.332;2023-02-15T15:55:55;16.00;90.50
25554;DHT22;13446;50.926;5.332;2023-02-15T15:58:21;16.00;91.20
25554;DHT22;13446;50.926;5.332;2023-02-15T16:01:07;15.80;91.50
25554;DHT22;13446;50.926;5.332;2023-02-15T16:03:33;15.80;92.20
25554;DHT22;13446;50.926;5.332;2023-02-15T16:05:59;15.80;92.70
25554;DHT22;13446;50.926;5.332;2023-02-15T16:08:26;15.80;92.90
25554;DHT22;13446;50.926;5.332;2023-02-15T16:10:52;15.80;93.10
25554;DHT22;13446;50.926;5.332;2023-02-15T16:13:18;15.80;93.20
25554;DHT22;13446;50.926;5.332;2023-02-15T16:15:44;15.70;93.50
25554;DHT22;13446;50.926;5.332;2023-02-15T16:18:13;15.50;94.00
25554;DHT22;13446;50.926;5.332;2023-02-15T16:20:39;15.40;94.40
25554;DHT22;13446;50.926;5.332;2023-02-15T16:28:14;15.20;95.90
25554;DHT22;13446;50.926;5.332;2023-02-15T16:30:44;15.00;96.10
25554;DHT22;13446;50.926;5.332;2023-02-15T16:33:11;15.00;96.60
25554;DHT22;13446;50.926;5.332;2023-02-15T16:35:37;15.00;97.00
25554;DHT22;13446;50.926;5.332;2023-02-15T16:38:03;14.90;97.10
25554;DHT22;13446;50.926;5.332;2023-02-15T16:43:28;14.70;98.10
25554;DHT22;13446;50.926;5.332;2023-02-15T16:46:15;14.50;98.90
25554;DHT22;13446;50.926;5.332;2023-02-15T16:48:42;14.40;99.80
25554;DHT22;13446;50.926;5.332;2023-02-15T16:51:08;14.40;99.90
25554;DHT22;13446;50.926;5.332;2023-02-15T16:53:34;14.30;99.90
25554;DHT22;13446;50.926;5.332;2023-02-15T16:56:01;14.20;99.90
25554;DHT22;13446;50.926;5.332;2023-02-15T16:58:28;14.10;99.90
25554;DHT22;13446;50.926;5.332;2023-02-15T17:00:59;14.20;99.90
25554;DHT22;13446;50.926;5.332;2023-02-15T17:03:25;14.10;99.90
25554;DHT22;13446;50.926;5.332;2023-02-15T17:05:55;14.00;99.90
25554;DHT22;13446;50.926;5.332;2023-02-15T17:13:24;13.70;99.90
25554;DHT22;13446;50.926;5.332;2023-02-15T17:21:24;13.50;99.90
25554;DHT22;13446;50.926;5.332;2023-02-15T17:23:51;13.40;99.90
25554;DHT22;13446;50.926;5.332;2023-02-15T17:31:22;13.20;99.90
25554;DHT22;13446;50.926;5.332;2023-02-15T17:33:49;13.20;99.90
25554;DHT22;13446;50.926;5.332;2023-02-15T17:36:19;13.20;99.90
25554;DHT22;13446;50.926;5.332;2023-02-15T17:41:25;13.10;99.90
25554;DHT22;13446;50.926;5.332;2023-02-15T17:43:51;13.10;99.90
25554;DHT22;13446;50.926;5.332;2023-02-15T17:46:18;13.10;99.90
25554;DHT22;13446;50.926;5.332;2023-02-15T17:48:50;13.10;99.90
25554;DHT22;13446;50.926;5.332;2023-02-15T17:51:16;13.20;99.90
25554;DHT22;13446;50.926;5.332;2023-02-15T17:53:42;13.00;99.90
25554;DHT22;13446;50.926;5.332;2023-02-15T17:56:29;12.80;99.90
25554;DHT22;13446;50.926;5.332;2023-02-15T17:58:55;12.90;99.90
25554;DHT22;13446;50.926;5.332;2023-02-15T18:01:20;12.80;99.90
25554;DHT22;13446;50.926;5.332;2023-02-15T18:04:07;12.70;99.90
25554;DHT22;13446;50.926;5.332;2023-02-15T18:06:52;12.80;99.90
25554;DHT22;13446;50.926;5.332;2023-02-15T18:09:36;12.70;99.90
25554;DHT22;13446;50.926;5.332;2023-02-15T18:12:22;12.50;99.90
25554;DHT22;13446;50.926;5.332;2023-02-15T18:14:48;12.40;99.90
25554;DHT22;13446;50.926;5.332;2023-02-15T18:17:14;12.30;99.90
25554;DHT22;13446;50.926;5.332;2023-02-15T18:19:40;12.20;99.90
25554;DHT22;13446;50.926;5.332;2023-02-15T18:22:13;12.10;99.90
25554;DHT22;13446;50.926;5.332;2023-02-15T18:24:40;12.10;99.90
25554;DHT22;13446;50.926;5.332;2023-02-15T18:27:05;12.20;99.90
25554;DHT22;13446;50.926;5.332;2023-02-15T18:29:31;12.10;99.90
25554;DHT22;13446;50.926;5.332;2023-02-15T18:31:57;12.10;99.90
25554;DHT22;13446;50.926;5.332;2023-02-15T18:34:26;12.10;99.90
25554;DHT22;13446;50.926;5.332;2023-02-15T18:36:52;12.10;99.90
25554;DHT22;13446;50.926;5.332;2023-02-15T18:42:04;11.90;99.90
25554;DHT22;13446;50.926;5.332;2023-02-15T18:44:30;11.80;99.90
25554;DHT22;13446;50.926;5.332;2023-02-15T18:46:56;11.80;99.90
25554;DHT22;13446;50.926;5.332;2023-02-15T18:49:21;11.80;99.90
25554;DHT22;13446;50.926;5.332;2023-02-15T18:51:48;11.80;99.90
25554;DHT22;13446;50.926;5.332;2023-02-15T18:54:15;11.70;99.90